createdAt,value
2023-03-06T00:02:10.128Z,65.09
2023-03-06T00:04:37.185Z,65.51
2023-03-06T00:07:04.204Z,64.90
2023-03-06T00:09:31.221Z,64.74
2023-03-06T00:11:58.328Z,64.97
2023-03-06T00:14:25.381Z,65.14
2023-03-06T00:16:58.337Z,65.26
2023-03-06T00:19:25.482Z,64.98
2023-03-06T00:21:52.498Z,65.30
2023-03-06T00:24:19.503Z,65.31
2023-03-06T00:26:46.566Z,65.31
2023-03-06T00:29:13.666Z,65.26
2023-03-06T00:31:40.796Z,65.02
2023-03-06T00:34:07.821Z,65.09
2023-03-06T00:36:34.832Z,64.80
2023-03-06T00:39:01.837Z,64.94
2023-03-06T00:41:28.805Z,64.98
2023-03-06T00:43:58.114Z,64.70
2023-03-06T00:46:25.149Z,64.83
2023-03-06T00:48:52.136Z,64.29
2023-03-06T00:51:21.894Z,64.27
2023-03-06T00:53:48.889Z,64.72
2023-03-06T00:56:17.068Z,64.60
2023-03-06T00:58:44.885Z,64.54
2023-03-06T01:01:11.944Z,64.84
2023-03-06T01:03:38.962Z,64.73
2023-03-06T01:06:06.242Z,65.01
2023-03-06T01:08:35.634Z,64.32
2023-03-06T01:11:02.734Z,64.67
2023-03-06T01:13:29.791Z,64.65
2023-03-06T01:16:09.763Z,65.12
2023-03-06T01:18:37.370Z,65.34
2023-03-06T01:21:05.396Z,64.70
2023-03-06T01:23:32.753Z,65.12
2023-03-06T01:26:00.090Z,64.44
2023-03-06T01:28:27.633Z,64.38
2023-03-06T01:30:56.135Z,64.28
2023-03-06T01:33:23.168Z,64.55
2023-03-06T01:35:50.244Z,64.23
2023-03-06T01:38:17.307Z,64.27
2023-03-06T01:40:44.463Z,63.61
2023-03-06T01:43:26.912Z,63.93
2023-03-06T01:46:25.415Z,63.71
2023-03-06T01:49:00.891Z,63.22
2023-03-06T01:51:33.587Z,63.86
2023-03-06T01:54:07.793Z,63.16
2023-03-06T01:56:35.693Z,63.68
2023-03-06T01:59:03.315Z,63.15
2023-03-06T02:01:32.248Z,63.43
2023-03-06T02:04:00.973Z,63.67
2023-03-06T02:06:29.695Z,63.35
2023-03-06T02:08:57.171Z,63.16
2023-03-06T02:11:25.272Z,63.58
2023-03-06T02:13:54.800Z,63.49
2023-03-06T02:16:26.733Z,63.61
2023-03-06T02:18:54.102Z,62.98
2023-03-06T02:21:27.088Z,63.34
2023-03-06T02:23:54.033Z,63.52
2023-03-06T02:26:22.334Z,63.27
2023-03-06T02:28:49.419Z,63.34
2023-03-06T02:31:24.839Z,63.31
2023-03-06T02:34:14.290Z,63.17
2023-03-06T02:36:45.693Z,63.13
2023-03-06T02:39:14.752Z,63.03
2023-03-06T02:41:41.816Z,62.55
2023-03-06T02:44:08.870Z,62.82
2023-03-06T02:46:36.263Z,62.90
2023-03-06T02:49:03.286Z,63.14
2023-03-06T02:51:30.317Z,63.05
2023-03-06T02:53:57.368Z,63.04
2023-03-06T02:56:24.436Z,62.92
2023-03-06T02:58:52.253Z,62.72
2023-03-06T03:01:20.318Z,62.70
2023-03-06T03:03:47.367Z,62.91
2023-03-06T03:06:15.609Z,64.24
2023-03-06T03:08:43.844Z,63.64
2023-03-06T03:11:12.516Z,63.83
2023-03-06T03:13:43.182Z,63.82
2023-03-06T03:16:18.176Z,63.21
2023-03-06T03:18:48.053Z,63.10
2023-03-06T03:21:17.930Z,63.12
2023-03-06T03:23:47.051Z,63.15
2023-03-06T03:26:20.248Z,63.58
2023-03-06T03:28:54.010Z,63.74
2023-03-06T03:31:22.227Z,63.85
2023-03-06T03:33:50.204Z,63.45
2023-03-06T03:36:18.959Z,63.27
2023-03-06T03:38:47.621Z,63.93
2023-03-06T03:41:14.848Z,63.60
2023-03-06T03:43:43.284Z,63.85
2023-03-06T03:46:11.094Z,63.64
2023-03-06T03:48:38.695Z,63.84
2023-03-06T03:51:16.760Z,64.22
2023-03-06T03:53:48.175Z,64.04
2023-03-06T03:56:19.509Z,64.32
2023-03-06T03:58:54.897Z,64.37
2023-03-06T04:01:22.812Z,64.91
2023-03-06T04:03:49.852Z,64.54
2023-03-06T04:06:18.149Z,64.84
2023-03-06T04:08:45.988Z,64.55
2023-03-06T04:11:14.014Z,64.93
2023-03-06T04:13:41.837Z,64.74
2023-03-06T04:16:09.270Z,65.18
2023-03-06T04:18:38.313Z,64.98
2023-03-06T04:21:06.507Z,64.26
2023-03-06T04:23:34.180Z,64.95
2023-03-06T04:26:02.139Z,64.83
2023-03-06T04:28:29.241Z,65.36
2023-03-06T04:30:57.378Z,65.24
2023-03-06T04:33:24.631Z,65.16
2023-03-06T04:35:51.780Z,65.79
2023-03-06T04:38:24.100Z,65.15
2023-03-06T04:40:51.334Z,65.81
2023-03-06T04:43:18.436Z,65.46
2023-03-06T04:45:45.562Z,65.03
2023-03-06T04:48:14.937Z,65.46
2023-03-06T04:50:42.458Z,65.05
2023-03-06T04:53:11.092Z,65.26
2023-03-06T04:55:38.449Z,64.99
2023-03-06T04:58:05.695Z,65.17
2023-03-06T05:00:32.828Z,64.65
2023-03-06T05:03:01.331Z,65.48
2023-03-06T05:05:29.357Z,64.90
2023-03-06T05:07:56.538Z,65.24
2023-03-06T05:10:24.025Z,64.74
2023-03-06T05:12:51.266Z,64.73
2023-03-06T05:15:18.785Z,65.71
2023-03-06T05:17:47.602Z,65.22
2023-03-06T05:20:15.726Z,64.73
2023-03-06T05:22:44.785Z,65.09
2023-03-06T05:25:12.232Z,64.72
2023-03-06T05:27:40.102Z,65.08
2023-03-06T05:30:08.897Z,64.96
2023-03-06T05:32:36.131Z,64.90
2023-03-06T05:35:04.882Z,64.50
2023-03-06T05:37:32.356Z,65.30
2023-03-06T05:40:00.499Z,65.05
2023-03-06T05:42:28.851Z,64.88
2023-03-06T05:44:55.905Z,64.27
2023-03-06T05:47:22.883Z,65.08
2023-03-06T05:49:50.056Z,64.39
2023-03-06T05:52:17.728Z,64.41
2023-03-06T05:54:44.799Z,64.63
2023-03-06T05:57:11.886Z,64.60
2023-03-06T05:59:38.875Z,64.22
2023-03-06T06:02:06.147Z,64.47
2023-03-06T06:04:33.213Z,64.19
2023-03-06T06:07:01.194Z,63.71
2023-03-06T06:09:29.351Z,63.52
2023-03-06T06:11:59.580Z,63.72
2023-03-06T06:14:26.771Z,64.06
2023-03-06T06:16:54.350Z,64.12
2023-03-06T06:19:22.618Z,63.60
2023-03-06T06:21:52.101Z,63.94
2023-03-06T06:24:21.855Z,63.24
2023-03-06T06:26:53.848Z,64.01
2023-03-06T06:29:21.725Z,63.57
2023-03-06T06:31:49.423Z,63.60
2023-03-06T06:34:17.171Z,63.72
2023-03-06T06:36:44.279Z,63.51
2023-03-06T06:39:14.312Z,63.13
2023-03-06T06:41:59.307Z,63.38
2023-03-06T06:44:28.445Z,62.82
2023-03-06T06:49:42.440Z,62.89
2023-03-06T06:52:10.883Z,62.77
2023-03-06T06:54:37.999Z,62.45
2023-03-06T06:57:05.200Z,62.19
2023-03-06T06:59:32.191Z,62.14
2023-03-06T07:02:01.522Z,62.15
2023-03-06T07:04:28.547Z,61.76
2023-03-06T07:06:56.836Z,61.68
2023-03-06T07:09:24.124Z,61.55
2023-03-06T07:11:51.426Z,61.20
2023-03-06T07:14:18.609Z,61.06
2023-03-06T07:16:45.589Z,61.47
2023-03-06T07:19:12.593Z,61.43
2023-03-06T07:21:39.580Z,61.13
2023-03-06T07:24:06.843Z,60.97
2023-03-06T07:26:34.881Z,61.18
2023-03-06T07:29:03.760Z,61.15
2023-03-06T07:31:31.118Z,60.92
2023-03-06T07:33:58.162Z,61.03
2023-03-06T07:36:25.227Z,60.48
2023-03-06T07:38:52.290Z,60.66
2023-03-06T07:41:22.194Z,60.83
2023-03-06T07:43:50.357Z,61.10
2023-03-06T07:46:18.066Z,60.23
2023-03-06T07:48:45.166Z,60.48
2023-03-06T07:51:21.422Z,60.67
2023-03-06T07:53:49.664Z,60.30
2023-03-06T07:56:17.021Z,60.39
2023-03-06T07:58:46.663Z,60.39
2023-03-06T08:01:17.121Z,60.23
2023-03-06T08:03:44.863Z,60.26
2023-03-06T08:06:18.124Z,59.62
2023-03-06T08:08:47.305Z,59.66
2023-03-06T08:11:17.209Z,59.86
2023-03-06T08:13:45.223Z,59.17
2023-03-06T08:16:12.340Z,59.17
2023-03-06T08:18:44.373Z,58.67
2023-03-06T08:21:18.799Z,58.46
2023-03-06T08:23:46.546Z,58.73
2023-03-06T08:26:25.486Z,58.05
2023-03-06T08:28:54.371Z,57.77
2023-03-06T08:31:38.831Z,57.31
2023-03-06T08:34:09.113Z,57.23
2023-03-06T08:36:36.785Z,56.70
2023-03-06T08:39:05.017Z,57.66
2023-03-06T08:41:32.823Z,57.70
2023-03-06T08:43:59.853Z,58.28
2023-03-06T08:46:28.943Z,57.83
2023-03-06T08:48:56.877Z,57.71
2023-03-06T08:51:24.311Z,58.19
2023-03-06T08:53:52.001Z,58.06
2023-03-06T08:56:21.987Z,58.16
2023-03-06T08:58:49.317Z,58.00
2023-03-06T09:01:28.345Z,58.53
2023-03-06T09:03:58.094Z,58.24
2023-03-06T09:06:26.373Z,58.66
2023-03-06T09:08:54.677Z,58.36
2023-03-06T09:11:23.510Z,58.60
2023-03-06T09:13:50.697Z,58.60
2023-03-06T09:16:18.012Z,58.39
2023-03-06T09:18:45.154Z,58.29
2023-03-06T09:21:12.316Z,58.09
2023-03-06T09:23:39.836Z,57.49
2023-03-06T09:26:08.562Z,58.03
2023-03-06T09:28:39.086Z,57.96
2023-03-06T09:31:15.929Z,58.08
2023-03-06T09:33:43.457Z,58.21
2023-03-06T09:36:23.722Z,58.46
2023-03-06T09:38:50.944Z,58.01
2023-03-06T09:41:35.818Z,57.02
2023-03-06T09:44:15.696Z,57.85
2023-03-06T09:46:55.179Z,57.95
2023-03-06T09:49:36.204Z,58.01
2023-03-06T09:52:24.821Z,56.75
2023-03-06T09:55:03.556Z,56.91
2023-03-06T09:57:36.821Z,56.22
2023-03-06T10:00:30.825Z,56.13
2023-03-06T10:03:17.971Z,55.71
2023-03-06T10:05:51.029Z,56.57
2023-03-06T10:08:24.384Z,56.59
2023-03-06T10:10:59.786Z,56.92
2023-03-06T10:13:34.445Z,56.34
2023-03-06T10:16:31.687Z,55.57
2023-03-06T10:19:03.427Z,57.12
2023-03-06T10:21:57.622Z,55.89
2023-03-06T10:24:53.676Z,55.65
2023-03-06T10:27:29.827Z,55.26
2023-03-06T10:30:20.054Z,55.60
2023-03-06T10:32:58.851Z,55.33
2023-03-06T10:35:33.103Z,55.56
2023-03-06T10:38:22.110Z,55.73
2023-03-06T10:41:12.971Z,56.09
2023-03-06T10:43:41.131Z,55.32
2023-03-06T10:46:10.209Z,55.38
2023-03-06T10:48:40.894Z,55.10
2023-03-06T10:51:21.233Z,55.09
2023-03-06T10:53:58.901Z,54.75
2023-03-06T10:56:47.022Z,55.53
2023-03-06T10:59:28.470Z,55.29
2023-03-06T11:01:58.536Z,55.26
2023-03-06T11:04:36.741Z,53.95
2023-03-06T11:07:17.459Z,55.18
2023-03-06T11:10:25.129Z,55.85
2023-03-06T11:13:03.052Z,55.97
2023-03-06T11:15:30.548Z,56.15
2023-03-06T11:18:09.782Z,56.98
2023-03-06T11:20:51.375Z,57.65
2023-03-06T11:23:32.549Z,58.32
2023-03-06T11:26:17.989Z,58.57
2023-03-06T11:29:14.718Z,58.85
2023-03-06T11:32:14.849Z,58.72
2023-03-06T11:35:03.602Z,58.75
2023-03-06T11:38:00.290Z,58.82
2023-03-06T11:40:27.285Z,58.61
2023-03-06T11:43:09.978Z,58.94
2023-03-06T11:45:45.317Z,59.02
2023-03-06T11:48:15.018Z,58.53
2023-03-06T11:50:48.186Z,58.96
2023-03-06T11:53:37.568Z,61.50
2023-03-06T11:56:19.818Z,59.50
2023-03-06T11:58:49.708Z,58.91
2023-03-06T12:01:50.462Z,58.69
2023-03-06T12:04:55.011Z,57.07
2023-03-06T12:07:29.204Z,57.80
2023-03-06T12:10:23.797Z,56.90
2023-03-06T12:16:33.635Z,56.59
2023-03-06T12:19:22.048Z,57.08
2023-03-06T12:22:26.102Z,56.90
2023-03-06T12:25:02.386Z,57.24
2023-03-06T12:27:58.761Z,56.65
2023-03-06T12:30:25.729Z,57.19
2023-03-06T12:32:55.043Z,56.17
2023-03-06T12:35:30.954Z,56.20
2023-03-06T12:38:22.114Z,55.01
2023-03-06T12:41:11.915Z,54.47
2023-03-06T12:44:04.712Z,53.46
2023-03-06T12:46:38.781Z,54.11
2023-03-06T12:49:31.152Z,54.02
2023-03-06T12:52:00.205Z,54.26
2023-03-06T12:54:33.695Z,53.51
2023-03-06T12:57:01.336Z,53.41
2023-03-06T12:59:36.120Z,52.52
2023-03-06T13:02:11.846Z,52.24
2023-03-06T13:05:01.958Z,50.19
2023-03-06T13:07:55.772Z,50.41
2023-03-06T13:10:27.567Z,52.38
2023-03-06T13:13:24.809Z,51.88
2023-03-06T13:16:03.810Z,51.59
2023-03-06T13:18:49.251Z,50.45
2023-03-06T13:22:07.300Z,50.63
2023-03-06T13:24:37.676Z,50.81
2023-03-06T13:27:12.306Z,51.58
2023-03-06T13:29:39.230Z,51.65
2023-03-06T13:32:16.558Z,51.64
2023-03-06T13:34:48.685Z,51.34
2023-03-06T13:37:18.781Z,51.39
2023-03-06T13:40:06.776Z,49.67
2023-03-06T13:42:56.521Z,51.38
2023-03-06T13:45:48.376Z,51.26
2023-03-06T13:48:47.641Z,51.49
2023-03-06T13:51:26.514Z,51.36
2023-03-06T13:54:48.527Z,51.07
2023-03-06T13:57:33.930Z,50.88
2023-03-06T14:00:20.917Z,50.57
2023-03-06T14:02:58.897Z,51.41
2023-03-06T14:05:41.214Z,51.38
2023-03-06T14:08:10.976Z,51.34
2023-03-06T14:10:39.072Z,51.49
2023-03-06T14:13:14.332Z,51.56
2023-03-06T14:15:44.944Z,51.68
2023-03-06T14:18:19.706Z,51.85
2023-03-06T14:20:51.662Z,51.52
2023-03-06T14:23:24.005Z,51.70
2023-03-06T14:26:00.061Z,52.13
2023-03-06T14:28:29.776Z,52.35
2023-03-06T14:31:00.195Z,52.04
2023-03-06T14:34:05.235Z,50.74
2023-03-06T14:36:35.587Z,52.08
2023-03-06T14:39:24.284Z,51.33
2023-03-06T14:41:51.379Z,51.73
2023-03-06T14:44:22.943Z,51.62
2023-03-06T14:46:55.403Z,51.46
2023-03-06T14:49:24.595Z,51.69
2023-03-06T14:51:55.103Z,51.72
2023-03-06T14:54:31.686Z,51.45
2023-03-06T14:57:06.201Z,51.46
2023-03-06T14:59:43.712Z,51.78
2023-03-06T15:02:18.092Z,51.41
2023-03-06T15:04:49.381Z,51.38
2023-03-06T15:07:23.874Z,51.02
2023-03-06T15:09:53.393Z,51.33
2023-03-06T15:12:20.322Z,51.34
2023-03-06T15:15:03.790Z,51.83
2023-03-06T15:17:42.023Z,51.81
2023-03-06T15:20:43.679Z,51.91
2023-03-06T15:23:35.816Z,52.09
2023-03-06T15:26:37.113Z,52.09
2023-03-06T15:29:10.808Z,52.77
2023-03-06T15:31:43.532Z,52.61
2023-03-06T15:34:10.681Z,52.47
2023-03-06T15:36:41.125Z,52.78
2023-03-06T15:39:26.811Z,52.87
2023-03-06T15:41:58.695Z,52.59
2023-03-06T15:44:26.004Z,53.17
2023-03-06T15:47:07.824Z,52.99
2023-03-06T15:49:38.302Z,53.04
2023-03-06T15:52:09.201Z,53.00
2023-03-06T15:54:36.932Z,53.21
2023-03-06T15:57:14.004Z,53.87
2023-03-06T15:59:43.006Z,53.50
2023-03-06T16:02:18.477Z,55.01
2023-03-06T16:04:46.240Z,54.53
2023-03-06T16:07:13.946Z,55.21
2023-03-06T16:09:42.375Z,56.70
2023-03-06T16:12:18.408Z,56.34
2023-03-06T16:14:47.758Z,56.47
2023-03-06T16:17:17.376Z,56.82
2023-03-06T16:19:44.732Z,57.37
2023-03-06T16:22:11.845Z,57.81
2023-03-06T16:24:38.922Z,59.06
2023-03-06T16:27:07.138Z,59.21
2023-03-06T16:29:35.296Z,58.43
2023-03-06T16:32:02.892Z,58.74
2023-03-06T16:34:29.958Z,58.45
2023-03-06T16:36:56.959Z,59.48
2023-03-06T16:39:24.668Z,59.45
2023-03-06T16:41:52.265Z,60.09
2023-03-06T16:44:20.931Z,60.80
2023-03-06T16:46:50.112Z,61.03
2023-03-06T16:49:24.703Z,61.47
2023-03-06T16:51:52.906Z,60.92
2023-03-06T16:54:21.948Z,61.35
2023-03-06T16:56:49.011Z,61.23
2023-03-06T16:59:16.115Z,61.32
2023-03-06T17:01:43.443Z,61.03
2023-03-06T17:04:11.015Z,61.53
2023-03-06T17:06:38.262Z,61.36
2023-03-06T17:09:05.466Z,61.66
2023-03-06T17:11:32.555Z,61.91
2023-03-06T17:13:59.741Z,61.68
2023-03-06T17:16:26.763Z,62.21
2023-03-06T17:18:55.107Z,61.38
2023-03-06T17:21:22.215Z,61.65
2023-03-06T17:23:50.977Z,62.12
2023-03-06T17:26:19.404Z,61.17
2023-03-06T17:28:47.213Z,61.21
2023-03-06T17:31:22.682Z,62.75
2023-03-06T17:33:51.620Z,62.28
2023-03-06T17:36:19.579Z,61.97
2023-03-06T17:38:47.217Z,62.22
2023-03-06T17:41:14.586Z,61.87
2023-03-06T17:43:41.923Z,61.66
2023-03-06T17:46:11.245Z,62.31
2023-03-06T17:48:38.855Z,61.62
2023-03-06T17:51:07.598Z,62.32
2023-03-06T17:53:34.713Z,62.42
2023-03-06T17:56:06.829Z,62.34
2023-03-06T17:58:34.152Z,62.36
2023-03-06T18:01:09.664Z,62.35
2023-03-06T18:03:38.552Z,62.05
2023-03-06T18:06:09.517Z,62.07
2023-03-06T18:08:37.819Z,61.86
2023-03-06T18:11:07.300Z,62.43
2023-03-06T18:13:36.752Z,61.72
2023-03-06T18:16:06.067Z,62.05
2023-03-06T18:18:33.539Z,62.30
2023-03-06T18:21:09.378Z,63.02
2023-03-06T18:23:37.597Z,62.68
2023-03-06T18:26:11.911Z,62.57
2023-03-06T18:28:42.771Z,62.66
2023-03-06T18:31:28.160Z,61.86
2023-03-06T18:33:57.673Z,61.97
2023-03-06T18:36:26.766Z,62.65
2023-03-06T18:38:53.998Z,62.01
2023-03-06T18:41:22.135Z,62.35
2023-03-06T18:43:53.769Z,62.42
2023-03-06T18:46:21.779Z,62.15
2023-03-06T18:48:50.361Z,62.12
2023-03-06T18:51:19.494Z,61.84
2023-03-06T18:53:46.648Z,62.75
2023-03-06T18:56:19.194Z,62.17
2023-03-06T18:58:46.777Z,61.99
2023-03-06T19:01:14.529Z,62.66
2023-03-06T19:03:41.608Z,62.73
2023-03-06T19:06:11.741Z,62.83
2023-03-06T19:08:39.959Z,62.46
2023-03-06T19:11:10.010Z,62.99
2023-03-06T19:13:37.632Z,62.85
2023-03-06T19:16:05.582Z,63.25
2023-03-06T19:18:32.770Z,63.00
2023-03-06T19:21:23.481Z,63.33
2023-03-06T19:23:50.549Z,63.04
2023-03-06T19:26:21.529Z,63.94
2023-03-06T19:28:49.483Z,63.68
2023-03-06T19:31:20.263Z,63.60
2023-03-06T19:33:48.968Z,63.67
2023-03-06T19:36:17.337Z,62.86
2023-03-06T19:38:44.413Z,63.17
2023-03-06T19:41:13.807Z,63.62
2023-03-06T19:43:42.458Z,64.20
2023-03-06T19:46:15.658Z,63.58
2023-03-06T19:48:42.773Z,63.85
2023-03-06T19:51:10.395Z,63.21
2023-03-06T19:53:39.722Z,63.07
2023-03-06T19:56:13.560Z,63.53
2023-03-06T19:58:40.891Z,63.34
2023-03-06T20:01:13.528Z,62.87
2023-03-06T20:03:41.222Z,62.68
2023-03-06T20:06:13.323Z,63.06
2023-03-06T20:08:40.379Z,62.62
2023-03-06T20:11:07.396Z,62.98
2023-03-06T20:13:34.411Z,62.80
2023-03-06T20:16:04.485Z,63.21
2023-03-06T20:18:31.568Z,62.73
2023-03-06T20:21:03.652Z,63.11
2023-03-06T20:23:31.771Z,63.42
2023-03-06T20:26:07.299Z,62.63
2023-03-06T20:28:35.205Z,62.53
2023-03-06T20:31:13.665Z,63.47
2023-03-06T20:33:40.660Z,62.64
2023-03-06T20:36:32.322Z,63.35
2023-03-06T20:39:00.834Z,62.49
2023-03-06T20:41:29.285Z,62.29
2023-03-06T20:43:58.705Z,62.32
2023-03-06T20:46:26.363Z,62.27
2023-03-06T20:48:54.438Z,62.41
2023-03-06T20:51:23.887Z,62.53
2023-03-06T20:53:55.536Z,62.06
2023-03-06T20:56:25.757Z,62.49
2023-03-06T20:58:53.529Z,61.61
2023-03-06T21:01:22.507Z,61.66
2023-03-06T21:03:49.900Z,61.85
2023-03-06T21:06:17.757Z,62.09
2023-03-06T21:08:44.801Z,62.23
2023-03-06T21:11:12.182Z,62.13
2023-03-06T21:13:39.478Z,62.12
2023-03-06T21:16:09.965Z,62.30
2023-03-06T21:18:37.368Z,62.46
2023-03-06T21:21:16.865Z,62.14
2023-03-06T21:23:43.905Z,61.66
2023-03-06T21:26:13.122Z,62.16
2023-03-06T21:28:40.159Z,61.90
2023-03-06T21:31:12.395Z,61.95
2023-03-06T21:33:39.835Z,61.75
2023-03-06T21:36:07.529Z,61.73
2023-03-06T21:38:35.113Z,61.80
2023-03-06T21:41:09.446Z,61.87
2023-03-06T21:43:36.485Z,62.03
2023-03-06T21:46:03.915Z,61.73
2023-03-06T21:48:31.221Z,61.81
2023-03-06T21:51:19.251Z,61.67
2023-03-06T21:53:48.347Z,61.54
2023-03-06T21:56:17.790Z,60.98
2023-03-06T21:58:45.727Z,61.30
2023-03-06T22:01:17.080Z,61.44
2023-03-06T22:03:44.116Z,60.89
2023-03-06T22:06:24.145Z,60.35
2023-03-06T22:08:51.445Z,60.87
2023-03-06T22:11:20.542Z,60.49
2023-03-06T22:13:48.491Z,60.06
2023-03-06T22:16:16.564Z,60.34
2023-03-06T22:18:48.921Z,59.63
2023-03-06T22:21:18.290Z,60.31
2023-03-06T22:23:50.202Z,60.58
2023-03-06T22:26:17.272Z,59.92
2023-03-06T22:28:44.378Z,60.24
2023-03-06T22:31:17.734Z,59.83
2023-03-06T22:33:45.382Z,60.01
2023-03-06T22:36:16.260Z,60.32
2023-03-06T22:38:45.132Z,60.11
2023-03-06T22:41:14.194Z,59.63
2023-03-06T22:43:41.784Z,60.22
2023-03-06T22:46:11.429Z,59.30
2023-03-06T22:48:38.547Z,58.98
2023-03-06T22:51:10.549Z,58.96
2023-03-06T22:53:38.430Z,59.32
2023-03-06T22:56:07.933Z,59.17
2023-03-06T22:58:37.434Z,59.14
2023-03-06T23:01:06.163Z,58.96
2023-03-06T23:03:33.467Z,58.54
2023-03-06T23:06:00.461Z,59.27
2023-03-06T23:08:27.454Z,58.89
2023-03-06T23:10:54.364Z,59.42
2023-03-06T23:13:40.456Z,58.86
2023-03-06T23:16:26.500Z,59.12
2023-03-06T23:19:12.457Z,59.01
2023-03-06T23:21:58.249Z,58.68
2023-03-06T23:24:43.967Z,58.42
2023-03-06T23:27:11.547Z,58.19
2023-03-06T23:29:38.521Z,58.49
2023-03-06T23:32:05.932Z,58.61
2023-03-06T23:34:32.920Z,58.94
2023-03-06T23:37:00.000Z,59.04
2023-03-06T23:39:27.334Z,58.48
2023-03-06T23:41:54.350Z,58.89
2023-03-06T23:44:21.406Z,58.56
2023-03-06T23:46:48.475Z,58.66
2023-03-06T23:49:15.428Z,58.88
2023-03-06T23:51:42.459Z,58.80
2023-03-06T23:54:10.451Z,58.18
2023-03-06T23:56:37.691Z,58.11
2023-03-06T23:59:04.729Z,58.94
